createdAt,value
2019-05-25T04:26:21.309Z,99.99
2019-05-25T04:26:56.740Z,99.99
2019-05-25T04:27:57.899Z,99.99
2019-05-25T04:32:56.512Z,99.99
2019-05-25T04:33:49.979Z,99.99
2019-05-25T04:34:49.083Z,99.99
2019-05-25T04:35:54.638Z,99.99
2019-05-25T04:37:14.309Z,99.99
2019-05-25T04:37:48.999Z,99.99
2019-05-25T04:38:49.290Z,99.99
2019-05-25T04:39:48.840Z,99.99
2019-05-25T04:40:48.047Z,99.99
2019-05-25T04:41:49.733Z,99.99
2019-05-25T04:42:50.308Z,99.99
2019-05-25T04:43:47.778Z,99.99
2019-05-25T04:44:48.725Z,99.99
2019-05-25T04:45:47.835Z,99.99
2019-05-25T04:46:47.590Z,99.99
2019-05-25T04:52:41.206Z,99.99
2019-05-25T04:57:33.337Z,99.99
2019-05-25T04:58:19.510Z,99.99
2019-05-25T05:02:18.683Z,99.99
2019-05-25T05:03:18.086Z,99.99
2019-05-25T05:04:18.629Z,99.99
2019-05-25T05:05:17.466Z,99.99
2019-05-25T05:06:18.555Z,99.99
2019-05-25T05:07:17.166Z,99.99
2019-05-25T05:08:17.156Z,99.99
2019-05-25T05:09:17.144Z,99.99
2019-05-25T05:10:17.120Z,99.99
2019-05-25T05:11:17.119Z,99.99
2019-05-25T05:12:17.123Z,99.99
2019-05-25T05:13:17.074Z,99.99
2019-05-25T05:14:17.085Z,99.99
2019-05-25T05:15:17.106Z,99.99
2019-05-25T05:16:17.028Z,99.99
2019-05-25T05:17:17.016Z,99.99
2019-05-25T05:18:16.993Z,99.99
2019-05-25T05:19:17.925Z,99.99
2019-05-25T05:20:16.974Z,99.99
2019-05-25T05:21:17.001Z,99.99
2019-05-25T05:22:16.932Z,99.99
2019-05-25T05:23:16.927Z,99.99
2019-05-25T05:24:16.900Z,99.99
2019-05-25T05:25:16.886Z,99.99
2019-05-25T05:26:17.143Z,99.99
2019-05-25T05:27:16.861Z,99.99
2019-05-25T05:28:16.927Z,99.99
2019-05-25T05:29:16.820Z,99.99
2019-05-25T05:30:16.817Z,99.99
2019-05-25T05:31:23.426Z,99.99
2019-05-25T05:32:27.184Z,99.99
2019-05-25T05:33:16.767Z,99.99
2019-05-25T05:34:16.754Z,99.99
2019-05-25T05:35:16.737Z,99.99
2019-05-25T05:36:16.723Z,99.99
2019-05-25T05:37:16.752Z,99.99
2019-05-25T05:38:16.691Z,99.99
2019-05-25T05:39:16.677Z,99.99
2019-05-25T05:40:16.651Z,99.99
2019-05-25T05:41:16.644Z,99.99
2019-05-25T05:42:16.662Z,99.99
2019-05-25T05:43:16.681Z,99.99
2019-05-25T05:44:16.652Z,99.99
2019-05-25T05:45:16.590Z,99.99
2019-05-25T05:46:16.576Z,99.99
2019-05-25T05:47:16.564Z,99.99
2019-05-25T05:48:16.547Z,99.99
2019-05-25T05:49:16.563Z,99.99
2019-05-25T05:50:16.517Z,99.99
2019-05-25T05:51:16.494Z,99.99
2019-05-25T05:52:16.480Z,99.99
2019-05-25T05:53:16.460Z,99.99
2019-05-25T05:54:16.475Z,99.99
2019-05-25T05:55:17.442Z,99.99
2019-05-25T05:56:16.420Z,99.99
2019-05-25T05:57:16.411Z,99.99
2019-05-25T05:58:16.383Z,99.99
2019-05-25T05:59:16.514Z,99.99
2019-05-25T06:00:16.356Z,99.99
2019-05-25T06:01:16.350Z,99.99
2019-05-25T06:02:16.340Z,99.99
2019-05-25T06:03:16.316Z,99.99
2019-05-25T06:04:16.332Z,99.99
2019-05-25T06:05:16.281Z,99.99
2019-05-25T06:06:16.283Z,99.99
2019-05-25T06:07:16.254Z,99.99
2019-05-25T06:08:16.272Z,99.99
2019-05-25T06:09:16.300Z,99.99
2019-05-25T06:10:16.234Z,99.99
2019-05-25T06:11:16.219Z,99.99
2019-05-25T06:12:16.186Z,99.99
2019-05-25T06:13:16.173Z,99.99
2019-05-25T06:14:16.165Z,99.99
2019-05-25T06:15:16.256Z,99.99
2019-05-25T06:16:16.146Z,99.99
2019-05-25T06:17:16.105Z,99.99
2019-05-25T06:18:16.101Z,99.99
2019-05-25T06:19:16.075Z,99.99
2019-05-25T06:20:16.060Z,99.99
2019-05-25T06:21:16.065Z,99.99
2019-05-25T06:22:16.083Z,99.99
2019-05-25T06:23:16.026Z,99.99
2019-05-25T06:24:16.011Z,99.99
2019-05-25T06:25:16.166Z,99.99
2019-05-25T06:26:15.977Z,99.99
2019-05-25T06:27:26.962Z,99.99
2019-05-25T06:28:18.282Z,99.99
2019-05-25T06:29:15.934Z,99.99
2019-05-25T06:30:15.913Z,99.99
2019-05-25T06:31:15.904Z,99.99
2019-05-25T06:32:15.885Z,99.99
2019-05-25T06:33:15.881Z,99.99
2019-05-25T06:34:15.852Z,99.99
2019-05-25T06:35:15.835Z,99.99
2019-05-25T06:36:15.870Z,99.99
2019-05-25T06:37:15.816Z,99.99
2019-05-25T06:38:15.865Z,99.99
2019-05-25T06:39:15.787Z,99.99
2019-05-25T06:40:30.641Z,99.99
2019-05-25T06:41:17.269Z,99.99
2019-05-25T06:42:17.086Z,99.99
2019-05-25T06:43:18.376Z,99.99
2019-05-25T06:44:17.404Z,99.99
2019-05-25T06:45:15.802Z,99.99
2019-05-25T06:46:17.408Z,99.99
2019-05-25T06:47:15.918Z,99.99
2019-05-25T06:48:15.661Z,99.99
2019-05-25T06:49:15.637Z,99.99
2019-05-25T06:50:15.660Z,99.99
2019-05-25T06:51:15.602Z,99.99
2019-05-25T06:52:15.644Z,99.99
2019-05-25T06:53:15.628Z,99.99
2019-05-25T06:56:41.690Z,99.99
2019-05-25T06:57:43.018Z,99.99
2019-05-25T06:58:37.117Z,99.99
2019-05-25T06:59:37.422Z,99.99
2019-05-25T07:00:37.157Z,99.99
2019-05-25T07:06:35.434Z,99.99
2019-05-25T07:07:34.433Z,99.99
2019-05-25T07:08:32.594Z,99.99
2019-05-25T07:09:32.603Z,99.99
2019-05-25T07:10:33.884Z,99.99
2019-05-25T07:11:32.449Z,99.99
2019-05-25T07:12:32.370Z,99.99
2019-05-25T07:13:32.326Z,99.99
2019-05-25T07:14:32.376Z,99.99
2019-05-25T07:15:32.442Z,99.99
2019-05-25T07:16:33.048Z,99.99
2019-05-25T07:17:32.270Z,99.99
2019-05-25T07:20:37.511Z,99.99
2019-05-25T07:21:37.457Z,99.99
2019-05-25T07:22:35.180Z,99.99
2019-05-25T07:23:35.070Z,99.99
2019-05-25T07:24:34.966Z,99.99
2019-05-25T07:25:34.867Z,99.99
2019-05-25T07:26:34.862Z,99.99
2019-05-25T07:27:34.839Z,99.99
2019-05-25T07:28:34.884Z,99.99
2019-05-25T07:29:34.935Z,99.99
2019-05-25T07:30:34.829Z,99.99
2019-05-25T07:31:34.787Z,99.99
2019-05-25T07:32:34.804Z,99.99
2019-05-25T07:33:34.762Z,99.99
2019-05-25T07:34:34.742Z,99.99
2019-05-25T07:35:34.759Z,99.99
2019-05-25T07:36:35.452Z,99.99
2019-05-25T07:37:35.587Z,99.99
2019-05-25T07:38:36.948Z,99.99
2019-05-25T07:39:34.932Z,99.99
2019-05-25T07:40:34.685Z,99.99
2019-05-25T07:41:34.647Z,99.99
2019-05-25T07:42:34.629Z,99.99
2019-05-25T07:43:34.612Z,99.99
2019-05-25T07:44:34.595Z,99.99
2019-05-25T07:45:34.605Z,99.99
2019-05-25T07:46:34.584Z,99.99
2019-05-25T07:47:34.597Z,99.99
2019-05-25T07:48:34.549Z,99.99
2019-05-25T07:49:34.527Z,99.99
2019-05-25T07:50:34.505Z,99.99
2019-05-25T07:51:34.553Z,99.99
2019-05-25T07:52:34.490Z,99.99
2019-05-25T07:53:34.460Z,99.99
2019-05-25T07:54:34.457Z,99.99
2019-05-25T07:55:34.448Z,99.99
2019-05-25T07:56:34.457Z,99.99
2019-05-25T07:57:34.407Z,99.99
2019-05-25T07:58:34.429Z,99.99
2019-05-25T07:59:34.383Z,99.99
2019-05-25T08:00:34.371Z,99.99
2019-05-25T08:01:34.348Z,99.99
2019-05-25T08:02:34.362Z,99.99
2019-05-25T08:03:34.357Z,99.99
2019-05-25T08:04:34.304Z,99.99
2019-05-25T08:05:34.293Z,99.28
2019-05-25T08:06:34.285Z,99.23
2019-05-25T08:07:34.262Z,99.99
2019-05-25T08:08:34.285Z,99.99
2019-05-25T08:09:35.061Z,99.99
2019-05-25T08:10:34.225Z,99.47
2019-05-25T08:11:34.210Z,99.95
2019-05-25T08:12:34.201Z,99.37
2019-05-25T08:13:34.211Z,99.18
2019-05-25T08:14:34.164Z,99.37
2019-05-25T08:15:34.154Z,99.95
2019-05-25T08:16:34.135Z,99.99
2019-05-25T08:17:34.131Z,99.99
2019-05-25T08:18:34.133Z,98.23
2019-05-25T08:19:34.098Z,96.03
2019-05-25T08:20:34.088Z,94.03
2019-05-25T08:21:34.068Z,92.97
2019-05-25T08:22:34.048Z,92.41
2019-05-25T08:23:34.039Z,92.60
2019-05-25T08:24:34.052Z,92.12
2019-05-25T08:25:34.011Z,91.83
2019-05-25T08:26:33.980Z,93.26
2019-05-25T08:27:34.004Z,90.59
2019-05-25T08:28:33.960Z,91.36
2019-05-25T08:29:33.981Z,91.83
2019-05-25T08:30:33.955Z,91.16
2019-05-25T08:31:33.926Z,90.11
2019-05-25T08:32:33.911Z,90.97
2019-05-25T08:33:33.923Z,91.64
2019-05-25T08:34:33.884Z,90.78
2019-05-25T08:35:33.872Z,90.59
2019-05-25T08:36:33.852Z,90.31
2019-05-25T08:37:33.843Z,88.68
2019-05-25T08:38:33.835Z,88.30
2019-05-25T08:39:33.842Z,89.01
2019-05-25T08:40:33.839Z,86.15
2019-05-25T08:41:33.789Z,86.91
2019-05-25T08:42:33.770Z,87.96
2019-05-25T08:43:34.094Z,85.38
2019-05-25T08:44:33.750Z,83.86
2019-05-25T08:45:33.868Z,83.57
2019-05-25T08:46:33.786Z,86.82
2019-05-25T08:47:33.699Z,84.81
2019-05-25T08:48:33.691Z,83.95
2019-05-25T08:49:33.686Z,85.00
2019-05-25T08:50:38.384Z,85.77
2019-05-25T08:51:33.651Z,86.63
2019-05-25T08:52:33.640Z,86.05
2019-05-25T08:53:41.567Z,85.10
2019-05-25T08:54:33.607Z,83.67
2019-05-25T08:55:33.593Z,83.28
2019-05-25T08:56:33.652Z,84.14
2019-05-25T08:57:33.558Z,86.34
2019-05-25T08:58:49.027Z,84.62
2019-05-25T08:59:33.541Z,83.57
2019-05-25T09:00:33.534Z,83.28
2019-05-25T09:01:33.558Z,83.67
2019-05-25T09:02:33.525Z,84.72
2019-05-25T09:03:33.481Z,86.24
2019-05-25T09:04:33.469Z,86.72
2019-05-25T09:05:33.447Z,85.19
2019-05-25T09:06:33.450Z,85.14
2019-05-25T09:07:33.456Z,84.95
2019-05-25T09:08:33.414Z,84.38
2019-05-25T09:09:33.416Z,83.70
2019-05-25T09:10:33.385Z,83.04
2019-05-25T09:11:33.366Z,83.67
2019-05-25T09:12:33.380Z,85.38
2019-05-25T09:13:33.409Z,84.91
2019-05-25T09:14:33.355Z,84.72
2019-05-25T09:15:33.320Z,86.24
2019-05-25T09:16:33.334Z,84.62
2019-05-25T09:17:33.290Z,83.00
2019-05-25T09:18:33.299Z,84.56
2019-05-25T09:19:33.267Z,84.66
2019-05-25T09:20:33.269Z,84.85
2019-05-25T09:21:33.243Z,84.85
2019-05-25T09:22:33.226Z,85.71
2019-05-25T09:23:33.250Z,86.19
2019-05-25T09:24:33.202Z,86.67
2019-05-25T09:25:33.197Z,86.76
2019-05-25T09:26:33.169Z,87.24
2019-05-25T09:27:33.150Z,87.05
2019-05-25T09:28:33.169Z,88.29
2019-05-25T09:29:33.140Z,86.76
2019-05-25T09:30:33.126Z,85.33
2019-05-25T09:31:33.107Z,83.80
2019-05-25T09:32:33.092Z,85.14
2019-05-25T09:33:33.226Z,84.66
2019-05-25T09:34:33.064Z,84.89
2019-05-25T09:35:33.060Z,85.28
2019-05-25T09:36:33.035Z,84.13
2019-05-25T09:37:33.030Z,84.03
2019-05-25T09:38:33.013Z,84.52
2019-05-25T09:39:33.013Z,84.52
2019-05-25T09:40:32.990Z,85.47
2019-05-25T09:41:32.975Z,86.04
2019-05-25T09:42:32.980Z,86.43
2019-05-25T09:43:34.019Z,86.14
2019-05-25T09:44:33.079Z,85.41
2019-05-25T09:45:32.925Z,85.17
2019-05-25T09:46:32.907Z,81.43
2019-05-25T09:47:32.896Z,78.74
2019-05-25T09:48:32.880Z,76.82
2019-05-25T09:49:32.872Z,74.15
2019-05-25T09:50:32.891Z,73.05
2019-05-25T09:51:32.857Z,74.87
2019-05-25T09:52:32.831Z,76.56
2019-05-25T09:53:32.862Z,77.38
2019-05-25T09:54:32.889Z,78.63
2019-05-25T09:55:32.831Z,79.16
2019-05-25T09:56:32.810Z,79.25
2019-05-25T09:57:32.799Z,80.59
2019-05-25T09:58:32.778Z,83.94
2019-05-25T09:59:32.808Z,82.98
2019-05-25T10:00:32.744Z,83.37
2019-05-25T10:01:32.737Z,83.27
2019-05-25T10:02:32.723Z,83.46
2019-05-25T10:03:32.708Z,82.31
2019-05-25T10:04:32.706Z,82.41
2019-05-25T10:05:34.094Z,82.41
2019-05-25T10:06:32.684Z,83.65
2019-05-25T10:07:32.651Z,83.65
2019-05-25T10:08:32.654Z,83.13
2019-05-25T10:09:32.630Z,84.19
2019-05-25T10:10:32.687Z,84.28
2019-05-25T10:11:32.608Z,86.29
2019-05-25T10:12:32.588Z,87.86
2019-05-25T10:13:32.577Z,87.48
2019-05-25T10:14:32.586Z,87.09
2019-05-25T10:15:32.565Z,86.52
2019-05-25T10:16:32.560Z,86.14
2019-05-25T10:17:32.544Z,85.85
2019-05-25T10:18:32.534Z,85.57
2019-05-25T10:19:32.508Z,86.80
2019-05-25T10:20:32.507Z,86.43
2019-05-25T10:21:32.519Z,86.33
2019-05-25T10:22:32.471Z,84.95
2019-05-25T10:23:32.481Z,86.19
2019-05-25T10:24:32.443Z,86.00
2019-05-25T10:25:32.426Z,86.04
2019-05-25T10:26:32.452Z,86.90
2019-05-25T10:27:34.359Z,87.57
2019-05-25T10:28:32.421Z,87.48
2019-05-25T10:29:37.041Z,85.09
2019-05-25T10:30:32.382Z,85.66
2019-05-25T10:31:32.362Z,85.18
2019-05-25T10:32:32.359Z,85.47
2019-05-25T10:33:32.692Z,86.04
2019-05-25T10:34:32.326Z,84.80
2019-05-25T10:35:32.439Z,85.47
2019-05-25T10:36:32.285Z,86.90
2019-05-25T10:37:32.297Z,84.70
2019-05-25T10:38:36.512Z,83.70
2019-05-25T10:39:32.243Z,84.76
2019-05-25T10:40:32.236Z,85.42
2019-05-25T10:41:32.392Z,84.28
2019-05-25T10:42:32.212Z,84.70
2019-05-25T10:43:32.238Z,83.17
2019-05-25T10:44:32.189Z,83.75
2019-05-25T10:45:32.160Z,83.65
2019-05-25T10:46:32.177Z,84.56
2019-05-25T10:47:32.162Z,85.62
2019-05-25T10:48:32.169Z,87.24
2019-05-25T10:49:32.163Z,87.86
2019-05-25T10:50:32.124Z,87.48
2019-05-25T10:51:32.111Z,87.00
2019-05-25T10:52:32.089Z,88.67
2019-05-25T10:53:32.102Z,85.61
2019-05-25T10:54:32.071Z,84.75
2019-05-25T10:55:32.065Z,84.65
2019-05-25T10:56:32.051Z,86.47
2019-05-25T10:57:32.027Z,85.22
2019-05-25T10:58:32.012Z,84.46
2019-05-25T10:59:31.998Z,82.35
2019-05-25T11:00:32.017Z,83.60
2019-05-25T11:01:31.979Z,83.98
2019-05-25T11:02:31.950Z,82.64
2019-05-25T11:03:31.957Z,81.59
2019-05-25T11:04:32.094Z,82.26
2019-05-25T11:05:32.056Z,81.30
2019-05-25T11:06:34.837Z,82.93
2019-05-25T11:07:31.994Z,83.89
2019-05-25T11:08:31.886Z,82.35
2019-05-25T11:09:31.880Z,82.93
2019-05-25T11:10:31.859Z,83.89
2019-05-25T11:11:31.870Z,82.74
2019-05-25T11:12:31.845Z,81.88
2019-05-25T11:13:31.842Z,81.21
2019-05-25T11:14:32.043Z,81.78
2019-05-25T11:15:32.343Z,81.45
2019-05-25T11:16:35.034Z,81.21
2019-05-25T11:17:31.787Z,83.89
2019-05-25T11:18:32.850Z,86.28
2019-05-25T11:19:31.850Z,83.89
2019-05-25T11:20:31.745Z,81.68
2019-05-25T11:21:31.716Z,81.55
2019-05-25T11:22:31.707Z,84.03
2019-05-25T11:23:31.833Z,82.51
2019-05-25T11:24:31.690Z,81.26
2019-05-25T11:25:31.727Z,82.03
2019-05-25T11:26:31.662Z,82.35
2019-05-25T11:27:31.635Z,84.08
2019-05-25T11:28:31.637Z,85.51
2019-05-25T11:29:31.629Z,86.08
2019-05-25T11:30:31.605Z,84.84
2019-05-25T11:31:31.708Z,84.65
2019-05-25T11:32:31.599Z,85.32
2019-05-25T11:33:31.571Z,82.74
2019-05-25T11:34:31.604Z,81.49
2019-05-25T11:35:31.683Z,81.68
2019-05-25T11:36:34.578Z,81.78
2019-05-25T11:37:31.529Z,83.50
2019-05-25T11:38:31.507Z,82.45
2019-05-25T11:39:31.513Z,83.22
2019-05-25T11:40:31.474Z,82.83
2019-05-25T11:41:31.488Z,82.93
2019-05-25T11:42:31.462Z,83.36
2019-05-25T11:43:31.451Z,80.96
2019-05-25T11:44:31.437Z,81.40
2019-05-25T11:45:31.477Z,82.17
2019-05-25T11:46:31.401Z,81.68
2019-05-25T11:47:31.433Z,82.45
2019-05-25T11:48:31.378Z,81.68
2019-05-25T11:49:31.377Z,81.02
2019-05-25T11:50:31.387Z,81.40
2019-05-25T11:51:31.354Z,82.64
2019-05-25T11:52:31.337Z,83.31
2019-05-25T11:53:31.326Z,82.54
2019-05-25T11:54:31.310Z,83.50
2019-05-25T11:55:31.365Z,83.50
2019-05-25T11:56:31.287Z,81.97
2019-05-25T11:57:31.272Z,82.17
2019-05-25T11:58:44.863Z,82.74
2019-05-25T11:59:31.241Z,86.85
2019-05-25T12:00:31.235Z,87.43
2019-05-25T12:01:31.235Z,85.61
2019-05-25T12:02:31.205Z,85.51
2019-05-25T12:03:31.234Z,86.18
2019-05-25T12:04:31.203Z,85.46
2019-05-25T12:05:31.173Z,83.06
2019-05-25T12:06:31.167Z,82.45
2019-05-25T12:07:31.174Z,82.26
2019-05-25T12:08:31.147Z,82.74
2019-05-25T12:09:31.120Z,83.79
2019-05-25T12:10:31.114Z,83.60
2019-05-25T12:11:31.107Z,83.79
2019-05-25T12:12:31.156Z,82.45
2019-05-25T12:13:32.146Z,82.45
2019-05-25T12:14:31.073Z,83.98
2019-05-25T12:15:31.054Z,83.79
2019-05-25T12:16:31.033Z,82.74
2019-05-25T12:17:31.030Z,83.60
2019-05-25T12:18:31.043Z,84.75
2019-05-25T12:19:31.007Z,83.50
2019-05-25T12:20:30.991Z,81.88
2019-05-25T12:21:30.970Z,81.82
2019-05-25T12:22:30.963Z,81.92
2019-05-25T12:23:31.090Z,83.73
2019-05-25T12:24:30.970Z,84.12
2019-05-25T12:25:30.930Z,80.04
2019-05-25T12:26:30.916Z,78.99
2019-05-25T12:27:30.909Z,84.83
2019-05-25T12:28:30.886Z,81.23
2019-05-25T12:29:30.901Z,77.40
2019-05-25T12:30:40.277Z,78.17
2019-05-25T12:31:30.860Z,77.59
2019-05-25T12:32:30.856Z,78.69
2019-05-25T12:33:30.839Z,78.40
2019-05-25T12:34:30.867Z,78.78
2019-05-25T12:35:30.845Z,76.67
2019-05-25T12:36:30.808Z,78.02
2019-05-25T12:37:30.790Z,74.76
2019-05-25T12:38:30.843Z,75.96
2019-05-25T12:39:30.780Z,77.11
2019-05-25T12:40:30.760Z,74.52
2019-05-25T12:41:30.751Z,75.58
2019-05-25T12:42:30.733Z,74.82
2019-05-25T12:43:30.726Z,77.02
2019-05-25T12:44:34.142Z,77.73
2019-05-25T12:45:30.707Z,77.92
2019-05-25T12:46:30.727Z,76.48
2019-05-25T12:47:30.690Z,75.23
2019-05-25T12:48:30.675Z,76.92
2019-05-25T12:49:48.506Z,72.99
2019-05-25T12:50:30.648Z,73.09
2019-05-25T12:51:30.663Z,76.54
2019-05-25T12:52:30.632Z,73.28
2019-05-25T12:53:30.626Z,73.76
2019-05-25T12:54:30.617Z,75.33
2019-05-25T12:55:30.602Z,75.04
2019-05-25T12:56:30.593Z,72.64
2019-05-25T12:57:30.590Z,71.98
2019-05-25T12:58:30.574Z,79.16
2019-05-25T12:59:30.563Z,74.76
2019-05-25T13:00:30.545Z,73.03
2019-05-25T13:01:30.542Z,72.52
2019-05-25T13:02:30.547Z,75.20
2019-05-25T13:03:30.562Z,74.91
2019-05-25T13:04:30.511Z,75.48
2019-05-25T13:05:34.585Z,75.29
2019-05-25T13:06:30.558Z,77.59
2019-05-25T13:07:30.489Z,75.68
2019-05-25T13:08:30.476Z,74.20
2019-05-25T13:09:30.462Z,76.02
2019-05-25T13:10:30.449Z,78.80
2019-05-25T13:11:30.432Z,77.02
2019-05-25T13:12:30.550Z,78.93
2019-05-25T13:13:30.409Z,76.25
2019-05-25T13:14:30.400Z,77.59
2019-05-25T13:15:30.381Z,75.29
2019-05-25T13:16:30.367Z,74.62
2019-05-25T13:17:30.354Z,74.91
2019-05-25T13:18:30.390Z,73.28
2019-05-25T13:19:30.334Z,73.28
2019-05-25T13:20:30.319Z,73.86
2019-05-25T13:21:30.311Z,75.68
2019-05-25T13:22:30.389Z,76.25
2019-05-25T13:23:30.324Z,75.58
2019-05-25T13:24:30.345Z,75.29
2019-05-25T13:25:30.276Z,75.23
2019-05-25T13:26:30.253Z,74.66
2019-05-25T13:27:30.251Z,73.41
2019-05-25T13:28:30.383Z,74.08
2019-05-25T13:30:32.094Z,74.05
2019-05-25T13:31:32.604Z,74.82
2019-05-25T13:32:30.256Z,73.38
2019-05-25T13:33:30.241Z,73.38
2019-05-25T13:34:46.401Z,74.33
2019-05-25T13:35:35.237Z,75.68
2019-05-25T13:36:51.155Z,76.92
2019-05-25T13:37:30.134Z,74.72
2019-05-25T13:38:30.135Z,77.97
2019-05-25T13:39:30.114Z,78.17
2019-05-25T13:40:30.126Z,75.10
2019-05-25T13:41:30.126Z,76.82
2019-05-25T13:42:30.090Z,75.20
2019-05-25T13:43:30.075Z,75.77
2019-05-25T13:44:30.061Z,75.20
2019-05-25T13:45:30.040Z,74.43
2019-05-25T13:46:30.046Z,74.97
2019-05-25T13:47:30.039Z,74.87
2019-05-25T13:48:30.053Z,75.83
2019-05-25T13:49:30.057Z,75.10
2019-05-25T13:50:29.992Z,75.10
2019-05-25T13:51:30.068Z,74.82
2019-05-25T13:52:29.977Z,75.10
2019-05-25T13:53:32.954Z,76.44
2019-05-25T13:54:29.956Z,77.11
2019-05-25T13:55:29.982Z,78.36
2019-05-25T13:56:29.927Z,77.21
2019-05-25T13:57:29.912Z,78.17
2019-05-25T13:58:29.894Z,76.98
2019-05-25T13:59:29.895Z,77.17
2019-05-25T14:00:29.887Z,76.02
2019-05-25T14:01:29.874Z,79.03
2019-05-25T14:02:29.852Z,78.55
2019-05-25T14:03:29.864Z,77.50
2019-05-25T14:04:29.857Z,81.04
2019-05-25T14:05:29.866Z,78.93
2019-05-25T14:06:29.814Z,77.11
2019-05-25T14:07:30.033Z,76.15
2019-05-25T14:08:29.780Z,74.43
2019-05-25T14:09:29.781Z,74.15
2019-05-25T14:10:29.766Z,75.29
2019-05-25T14:11:29.749Z,73.66
2019-05-25T14:12:29.748Z,73.28
2019-05-25T14:13:29.759Z,74.11
2019-05-25T14:14:29.702Z,75.26
2019-05-25T14:15:29.708Z,76.60
2019-05-25T14:16:29.702Z,78.61
2019-05-25T14:17:29.676Z,79.08
2019-05-25T14:18:29.706Z,79.85
2019-05-25T14:19:29.659Z,81.10
2019-05-25T14:20:29.642Z,81.33
2019-05-25T14:21:29.645Z,79.89
2019-05-25T14:22:29.618Z,78.93
2019-05-25T14:23:39.142Z,78.93
2019-05-25T14:26:39.093Z,75.20
2019-05-25T14:27:20.229Z,75.29
2019-05-25T14:28:20.704Z,74.33
2019-05-25T14:29:19.723Z,74.24
2019-05-25T14:30:20.612Z,74.82
2019-05-25T14:31:20.106Z,75.87
2019-05-25T14:32:28.847Z,75.01
2019-05-25T14:33:19.750Z,75.39
2019-05-25T14:34:19.695Z,78.36
2019-05-25T14:35:19.646Z,77.40
2019-05-25T14:36:21.259Z,75.77
2019-05-25T14:37:20.796Z,75.68
2019-05-25T14:38:19.530Z,76.06
2019-05-25T14:39:19.504Z,76.44
2019-05-25T14:40:19.489Z,78.64
2019-05-25T14:41:19.491Z,78.93
2019-05-25T14:42:19.473Z,78.17
2019-05-25T14:43:19.462Z,77.63
2019-05-25T14:44:19.499Z,77.63
2019-05-25T14:45:19.437Z,73.32
2019-05-25T14:46:27.932Z,72.64
2019-05-25T14:47:20.382Z,73.13
2019-05-25T14:48:19.412Z,71.78
2019-05-25T14:49:19.424Z,72.64
2019-05-25T14:50:19.377Z,74.27
2019-05-25T14:51:19.370Z,73.70
2019-05-25T14:52:19.358Z,74.47
2019-05-25T14:53:19.335Z,75.81
2019-05-25T14:54:19.332Z,75.62
2019-05-25T14:55:19.326Z,74.66
2019-05-25T14:56:19.316Z,74.37
2019-05-25T14:57:19.301Z,75.62
2019-05-25T14:58:19.284Z,75.10
2019-05-25T14:59:19.276Z,74.52
2019-05-25T15:00:19.413Z,75.20
2019-05-25T15:01:19.254Z,75.01
2019-05-25T15:04:19.519Z,74.91
2019-05-25T15:05:19.812Z,76.25
2019-05-25T15:06:20.867Z,77.59
2019-05-25T15:07:18.515Z,77.21
2019-05-25T15:08:19.423Z,75.29
2019-05-25T15:09:22.681Z,75.10
2019-05-25T15:10:19.912Z,74.62
2019-05-25T15:11:18.064Z,75.48
2019-05-25T15:12:17.476Z,76.15
2019-05-25T15:13:17.367Z,75.77
2019-05-25T15:14:27.137Z,75.14
2019-05-25T15:15:19.855Z,74.95
2019-05-25T15:16:18.024Z,75.43
2019-05-25T15:17:18.713Z,74.95
2019-05-25T15:18:18.656Z,74.66
2019-05-25T15:19:17.292Z,73.90
2019-05-25T15:20:17.275Z,73.99
2019-05-25T15:21:17.284Z,74.76
2019-05-25T15:22:17.281Z,76.57
2019-05-25T15:23:17.244Z,75.96
2019-05-25T15:24:17.299Z,74.27
2019-05-25T15:25:17.225Z,75.62
2019-05-25T15:26:17.322Z,75.33
2019-05-25T15:27:17.228Z,73.66
2019-05-25T15:28:21.971Z,74.37
2019-05-25T15:29:17.178Z,74.27
2019-05-25T15:30:17.199Z,73.99
2019-05-25T15:31:17.153Z,74.66
2019-05-25T15:32:20.477Z,74.05
2019-05-25T15:33:17.168Z,74.52
2019-05-25T15:34:17.119Z,75.39
2019-05-25T15:35:26.641Z,74.24
2019-05-25T15:38:04.369Z,75.20
2019-05-25T15:39:04.854Z,74.82
2019-05-25T15:40:05.995Z,75.77
2019-05-25T15:41:04.270Z,75.58
2019-05-25T15:42:05.775Z,76.35
2019-05-25T15:43:05.705Z,78.07
2019-05-25T15:44:05.757Z,76.82
2019-05-25T15:45:04.162Z,75.10
2019-05-25T15:46:04.152Z,76.06
2019-05-25T15:47:14.266Z,76.64
2019-05-25T15:48:47.426Z,76.54
2019-05-25T15:49:04.553Z,76.15
2019-05-25T15:50:20.607Z,76.39
2019-05-25T15:51:05.607Z,75.81
2019-05-25T16:01:23.812Z,75.95
2019-05-25T16:02:35.594Z,72.68
2019-05-25T16:03:16.243Z,72.01
2019-05-25T16:04:18.337Z,71.25
2019-05-25T16:05:17.868Z,71.63
2019-05-25T16:06:15.441Z,73.03
2019-05-25T16:07:16.274Z,73.22
2019-05-25T16:08:16.342Z,73.61
2019-05-25T16:09:15.411Z,70.64
2019-05-25T16:10:15.425Z,71.02
2019-05-25T16:11:15.390Z,72.27
2019-05-25T16:12:16.376Z,73.03
2019-05-25T16:13:15.388Z,73.22
2019-05-25T16:14:15.346Z,71.40
2019-05-25T16:15:15.533Z,71.02
2019-05-25T16:16:16.532Z,71.69
2019-05-25T16:19:03.623Z,70.48
2019-05-25T16:20:03.196Z,70.76
2019-05-25T16:21:02.386Z,70.76
2019-05-25T16:22:02.274Z,70.67
2019-05-25T16:23:04.536Z,71.53
2019-05-25T16:24:03.215Z,72.59
2019-05-25T16:25:18.788Z,74.02
2019-05-25T16:26:02.836Z,72.30
2019-05-25T16:27:03.659Z,71.25
2019-05-25T16:28:02.720Z,71.05
2019-05-25T16:33:07.100Z,67.73
2019-05-25T16:33:39.425Z,69.42
2019-05-25T16:34:37.821Z,69.23
2019-05-25T16:35:39.765Z,69.42
2019-05-25T16:38:39.750Z,68.85
2019-05-25T16:39:37.366Z,69.62
2019-05-25T16:40:37.224Z,70.09
2019-05-25T16:41:36.226Z,70.96
2019-05-25T16:42:36.016Z,70.76
2019-05-25T16:43:37.116Z,72.30
2019-05-25T16:44:35.725Z,70.67
2019-05-25T16:45:35.721Z,69.81
2019-05-25T16:46:36.801Z,70.09
2019-05-25T16:47:35.702Z,71.15
2019-05-25T16:48:35.703Z,71.72
2019-05-25T16:49:35.688Z,72.11
2019-05-25T16:50:35.681Z,71.86
2019-05-25T16:51:35.654Z,71.09
2019-05-25T16:52:35.652Z,72.05
2019-05-25T16:53:35.792Z,72.91
2019-05-25T16:54:35.624Z,72.81
2019-05-25T16:55:35.796Z,71.57
2019-05-25T16:56:35.596Z,70.70
2019-05-25T16:57:35.584Z,70.42
2019-05-25T16:58:35.593Z,68.69
2019-05-25T16:59:35.648Z,68.59
2019-05-25T17:02:32.584Z,69.26
2019-05-25T17:03:32.157Z,68.02
2019-05-25T17:04:31.467Z,68.56
2019-05-25T17:05:31.067Z,69.42
2019-05-25T17:06:32.131Z,69.81
2019-05-25T17:07:31.349Z,71.25
2019-05-25T17:08:30.778Z,73.74
2019-05-25T17:09:30.591Z,73.83
2019-05-25T17:10:30.664Z,74.69
2019-05-25T17:11:30.537Z,75.56
2019-05-25T17:12:30.704Z,76.04
2019-05-25T17:13:31.651Z,75.37
2019-05-25T17:14:31.069Z,74.12
2019-05-25T17:15:30.478Z,73.16
2019-05-25T17:16:30.481Z,73.35
2019-05-25T17:17:30.475Z,74.54
2019-05-25T17:18:30.439Z,73.97
2019-05-25T17:19:30.459Z,73.68
2019-05-25T17:20:30.493Z,73.30
2019-05-25T17:21:30.482Z,73.68
2019-05-25T17:22:30.401Z,73.49
2019-05-25T17:23:30.651Z,73.49
2019-05-25T17:24:30.492Z,73.00
2019-05-25T17:25:30.674Z,73.20
2019-05-25T17:26:30.543Z,74.44
2019-05-25T17:27:31.063Z,74.73
2019-05-25T17:28:30.490Z,74.22
2019-05-25T17:29:30.318Z,72.97
2019-05-25T17:30:30.930Z,72.49
2019-05-25T17:31:30.378Z,72.59
2019-05-25T17:35:53.848Z,74.02
2019-05-25T17:36:23.914Z,72.30
2019-05-25T17:37:23.875Z,72.59
2019-05-25T17:38:23.185Z,72.88
2019-05-25T17:39:23.065Z,73.16
2019-05-25T17:40:24.415Z,74.51
2019-05-25T17:41:24.113Z,77.00
2019-05-25T17:42:23.002Z,77.58
2019-05-25T17:43:22.745Z,77.48
2019-05-25T17:44:22.136Z,77.58
2019-05-25T17:47:27.768Z,79.97
2019-05-25T17:48:14.660Z,80.07
2019-05-25T17:49:16.069Z,80.16
2019-05-25T17:50:15.751Z,79.97
2019-05-25T17:51:15.308Z,77.19
2019-05-25T17:52:15.421Z,74.89
2019-05-25T17:53:14.051Z,73.74
2019-05-25T17:56:31.543Z,75.08
2019-05-25T17:57:11.166Z,75.18
2019-05-25T17:58:15.028Z,75.37
2019-05-25T17:59:16.427Z,76.42
2019-05-25T18:00:13.302Z,76.32
2019-05-25T18:01:11.590Z,76.04
2019-05-25T18:06:41.150Z,79.68
2019-05-25T18:07:32.559Z,79.11
